Archival Weather

General Ignacio P Garcia Intl

General Ignacio P Garcia Intl, Mexico (MMHO)

Report from: Wednesday, December 6, 2023 4:40 AM CST
Current time: Friday, February 23, 2024 2:28 PM CST

Current weather – Weather history – Daily summaries
Weather forecast

Temperature13.0°C (55.4°F)
Dew point-2.0°C (28.4°F)
Winds 3 kts (1.5 m/s, 3.5 mph) East (90°)
Visibility10 mi. (16.1 km)
Clouds Scattered clouds 20,000 ft. (6,096 m)
Altimeter30.05 in.Hg (1018 mB)
Relative humidity35 %
Density altitude-301 ft. (-92 m)
Flight conditions Visual Meteorological Conditions
Raw dataMMHO 061040Z 09003KT 10SM SCT200 13/M02 A3005 RMK 8/008 HZY
An error has occurred. This application may no longer respond until reloaded. Reload 🗙